Time;durP1;ratioP1;P1;durP2;ratioP2;P2;SDS_P1;SDS_P2;PMS_P1;PMS_P2;Temp;Humidity;BMP_temperature;BMP_pressure;BME280_temperature;BME280_humidity;BME280_pressure;Samples;Min_cycle;Max_cycle;Signal;HPM_P1;HPM_P2
2022/10/20 00:01:36;;;;;;;;;;;;;;;9.76;60.06;101738.88;4975867;28;20290;-64
2022/10/20 00:04:01;;;;;;;;;;;;;;;9.76;60.23;101733.63;4975905;28;19922;-64
2022/10/20 00:06:28;;;;;;;;;;;;;;;9.84;60.36;101732.78;4976881;28;19925;-63
2022/10/20 00:08:54;;;;;;;;;;;;;;;9.90;60.35;101736.31;4976611;28;20291;-63
2022/10/20 00:11:20;;;;;;;;;;;;;;;9.84;60.40;101731.91;4974355;28;19940;-64
2022/10/20 00:13:46;;;;;;;;;;;;;;;9.97;60.22;101732.81;4976707;28;20285;-63
2022/10/20 00:16:12;;;;;;;;;;;;;;;9.97;59.97;101717.91;4977737;28;19914;-63
2022/10/20 00:18:37;;;;;;;;;;;;;;;9.95;59.86;101726.69;4976389;28;19922;-63
2022/10/20 00:21:07;;;;;;;;;;;;;;;10.09;59.58;101719.69;4977010;28;19920;-63
2022/10/20 00:23:32;;;;;;;;;;;;;;;10.31;59.22;101723.28;4975511;28;20373;-63
2022/10/20 00:26:03;;;;;;;;;;;;;;;10.39;58.65;101721.53;4976870;28;19936;-62
2022/10/20 00:28:28;;;;;;;;;;;;;;;10.42;58.77;101720.66;4976829;28;19917;-64
2022/10/20 00:30:55;;;;;;;;;;;;;;;10.50;58.61;101722.41;4975199;28;20284;-63
2022/10/20 00:33:20;;;;;;;;;;;;;;;10.63;58.39;101717.16;4976360;28;19921;-63
2022/10/20 00:35:45;;;;;;;;;;;;;;;10.69;58.54;101717.13;4976557;28;19929;-63
2022/10/20 00:38:10;;;;;;;;;;;;;;;10.82;57.93;101721.50;4975734;28;19926;-65
2022/10/20 00:40:36;;;;;;;;;;;;;;;10.83;57.90;101712.75;4968704;28;19960;-64
2022/10/20 00:43:01;;;;;;;;;;;;;;;10.91;57.72;101716.22;4974951;28;19927;-64
2022/10/20 00:45:27;;;;;;;;;;;;;;;10.95;57.15;101711.84;4974248;28;20016;-63
2022/10/20 00:47:58;;;;;;;;;;;;;;;11.01;57.20;101709.19;4974790;28;19922;-63
2022/10/20 00:50:37;;;;;;;;;;;;;;;11.09;57.11;101710.94;4975195;28;20109;-64
2022/10/20 00:53:03;;;;;;;;;;;;;;;11.19;57.00;101705.66;4975908;28;20021;-64
2022/10/20 00:55:31;;;;;;;;;;;;;;;11.26;56.81;101710.00;4976041;28;20429;-64
2022/10/20 00:57:57;;;;;;;;;;;;;;;11.33;56.78;101703.84;4974630;28;19926;-64
2022/10/20 01:00:23;;;;;;;;;;;;;;;11.17;57.05;101696.88;4974873;28;19984;-64
2022/10/20 01:02:49;;;;;;;;;;;;;;;11.14;57.10;101702.16;4974556;28;19940;-63
2022/10/20 01:05:15;;;;;;;;;;;;;;;11.01;57.40;101702.19;4969604;28;19961;-64
2022/10/20 01:07:40;;;;;;;;;;;;;;;10.83;58.19;101702.22;4974963;28;19949;-62
2022/10/20 01:10:06;;;;;;;;;;;;;;;10.84;58.07;101694.31;4974950;28;19918;-63
2022/10/20 01:12:31;;;;;;;;;;;;;;;10.76;58.17;101705.72;4975764;28;19920;-63
2022/10/20 01:15:02;;;;;;;;;;;;;;;10.74;58.54;101697.00;4974896;28;19930;-62
2022/10/20 01:17:39;;;;;;;;;;;;;;;10.86;58.33;101691.72;4973259;28;19972;-63
2022/10/20 01:20:07;;;;;;;;;;;;;;;10.76;58.32;101701.34;4975056;28;19921;-63
2022/10/20 01:22:39;;;;;;;;;;;;;;;10.40;59.17;101691.75;4975041;28;19914;-63
2022/10/20 01:25:17;;;;;;;;;;;;;;;10.47;59.14;101688.25;4975532;28;19925;-64
2022/10/20 01:27:43;;;;;;;;;;;;;;;10.18;59.93;101684.72;4974453;28;20294;-63
2022/10/20 01:30:15;;;;;;;;;;;;;;;10.18;60.06;101684.72;4974390;28;19928;-64
2022/10/20 01:32:40;;;;;;;;;;;;;;;10.11;60.07;101682.06;4974896;28;19922;-62
2022/10/20 01:35:12;;;;;;;;;;;;;;;10.22;59.97;101682.09;4973809;28;19918;-63
2022/10/20 01:37:45;;;;;;;;;;;;;;;10.35;59.72;101681.22;4975010;28;19914;-60
2022/10/20 01:40:20;;;;;;;;;;;;;;;10.40;59.49;101686.47;4975368;28;19933;-64
2022/10/20 01:42:47;;;;;;;;;;;;;;;10.42;59.26;101690.00;4972191;28;19918;-63
2022/10/20 01:45:14;;;;;;;;;;;;;;;10.56;58.92;101682.97;4973599;28;19922;-64
2022/10/20 01:47:39;;;;;;;;;;;;;;;10.69;58.89;101677.69;4972414;28;19933;-63
2022/10/20 01:50:06;;;;;;;;;;;;;;;10.79;58.20;101674.19;4972944;28;20021;-63
2022/10/20 01:52:31;;;;;;;;;;;;;;;10.68;57.95;101678.59;4972635;28;19917;-63
2022/10/20 01:54:56;;;;;;;;;;;;;;;10.62;58.10;101675.97;4974410;28;20060;-63
2022/10/20 01:57:40;;;;;;;;;;;;;;;10.58;58.38;101686.50;4974592;28;19949;-63
2022/10/20 02:00:07;;;;;;;;;;;;;;;10.57;58.61;101679.50;4974581;28;19925;-62
2022/10/20 02:02:38;;;;;;;;;;;;;;;10.57;58.57;101682.13;4973755;28;19980;-63
2022/10/20 02:05:10;;;;;;;;;;;;;;;10.58;58.70;101675.09;4973184;28;19918;-63
2022/10/20 02:07:36;;;;;;;;;;;;;;;10.40;59.44;101669.84;4974636;28;20370;-64
2022/10/20 02:10:11;;;;;;;;;;;;;;;10.51;59.06;101675.97;4974553;28;19926;-63
2022/10/20 02:12:40;;;;;;;;;;;;;;;10.47;59.15;101677.72;4973883;28;19918;-64
2022/10/20 02:15:06;;;;;;;;;;;;;;;10.69;58.63;101680.31;4972501;28;19933;-64
2022/10/20 02:17:33;;;;;;;;;;;;;;;10.77;58.30;101678.56;4974050;28;19968;-63
2022/10/20 02:19:58;;;;;;;;;;;;;;;10.68;58.32;101683.84;4973374;28;21011;-63
2022/10/20 02:22:24;;;;;;;;;;;;;;;10.66;58.54;101678.59;4974846;28;20397;-63
2022/10/20 02:24:49;;;;;;;;;;;;;;;10.69;58.76;101681.22;4974528;28;19961;-63
2022/10/20 02:27:23;;;;;;;;;;;;;;;10.75;58.56;101677.69;4974587;28;19976;-63
2022/10/20 02:30:00;;;;;;;;;;;;;;;10.72;58.52;101677.69;4974361;28;20052;-63
2022/10/20 02:32:26;;;;;;;;;;;;;;;10.75;58.34;101675.94;4968398;28;19926;-64
2022/10/20 02:34:51;;;;;;;;;;;;;;;10.80;58.06;101675.94;4974059;28;19914;-62
2022/10/20 02:37:16;;;;;;;;;;;;;;;10.93;57.58;101675.03;4973008;28;19922;-61
2022/10/20 02:39:42;;;;;;;;;;;;;;;10.85;57.79;101676.78;4972574;28;19914;-62
2022/10/20 02:42:07;;;;;;;;;;;;;;;10.73;58.18;101668.94;4969574;28;20008;-63
2022/10/20 02:44:32;;;;;;;;;;;;;;;10.65;58.28;101673.31;4973008;28;19987;-63
2022/10/20 02:46:58;;;;;;;;;;;;;;;10.65;58.29;101675.94;4970781;28;19936;-64
2022/10/20 02:49:24;;;;;;;;;;;;;;;10.68;58.33;101673.31;4973564;28;19922;-63
2022/10/20 02:51:49;;;;;;;;;;;;;;;10.61;58.50;101672.44;4973720;28;19929;-63
2022/10/20 02:54:15;;;;;;;;;;;;;;;10.56;58.78;101675.09;4973859;28;20306;-63
2022/10/20 02:56:40;;;;;;;;;;;;;;;10.68;58.56;101673.31;4973561;28;20024;-62
2022/10/20 02:59:05;;;;;;;;;;;;;;;10.79;58.32;101677.69;4972476;28;19918;-63
2022/10/20 03:01:30;;;;;;;;;;;;;;;10.72;58.07;101677.69;4972194;28;19922;-62
2022/10/20 03:03:58;;;;;;;;;;;;;;;10.81;58.03;101675.94;4973704;28;19964;-63
2022/10/20 03:06:24;;;;;;;;;;;;;;;10.74;57.99;101671.56;4973502;28;19924;-63
2022/10/20 03:08:49;;;;;;;;;;;;;;;10.62;58.48;101683.88;4973686;28;19918;-63
2022/10/20 03:11:14;;;;;;;;;;;;;;;10.67;58.50;101684.72;4973013;28;19918;-62
2022/10/20 03:13:40;;;;;;;;;;;;;;;10.53;58.47;101683.00;4974023;28;20337;-61
2022/10/20 03:16:05;;;;;;;;;;;;;;;10.44;58.75;101685.59;4973115;28;19922;-62
2022/10/20 03:18:30;;;;;;;;;;;;;;;10.33;59.27;101683.00;4976556;28;20444;-63
2022/10/20 03:20:56;;;;;;;;;;;;;;;10.06;59.49;101685.56;4975676;28;19922;-62
2022/10/20 03:23:21;;;;;;;;;;;;;;;10.05;59.75;101684.72;4977557;28;19929;-62
2022/10/20 03:25:46;;;;;;;;;;;;;;;9.92;59.93;101684.66;4977540;28;20318;-62
2022/10/20 03:28:12;;;;;;;;;;;;;;;9.72;60.65;101682.88;4976469;28;19925;-62
2022/10/20 03:30:37;;;;;;;;;;;;;;;9.53;61.04;101688.94;4977268;28;20247;-62
2022/10/20 03:33:03;;;;;;;;;;;;;;;9.47;61.33;101688.91;4977406;28;19921;-62
2022/10/20 03:35:28;;;;;;;;;;;;;;;9.42;61.42;101695.91;4976985;28;19929;-63
2022/10/20 03:37:53;;;;;;;;;;;;;;;9.37;61.56;101698.47;4975057;28;19922;-63
2022/10/20 03:40:19;;;;;;;;;;;;;;;9.25;61.97;101701.94;4978001;28;19918;-62
2022/10/20 03:42:44;;;;;;;;;;;;;;;9.11;62.21;101704.50;5008183;28;20377;-63
2022/10/20 03:45:09;;;;;;;;;;;;;;;9.08;62.06;101704.47;4977872;28;20005;-64
2022/10/20 03:47:34;;;;;;;;;;;;;;;8.99;62.45;101707.03;4978116;28;19922;-63
2022/10/20 03:50:00;;;;;;;;;;;;;;;8.93;62.52;101703.50;4977474;28;19925;-62
2022/10/20 03:52:25;;;;;;;;;;;;;;;8.89;62.60;101710.47;4977471;28;20374;-63
2022/10/20 03:54:50;;;;;;;;;;;;;;;8.88;62.52;101711.34;4977029;28;19973;-64
2022/10/20 03:57:16;;;;;;;;;;;;;;;8.67;63.19;101711.22;4980158;28;19921;-62
2022/10/20 03:59:41;;;;;;;;;;;;;;;8.73;62.91;101712.09;4979952;28;20305;-62
2022/10/20 04:02:06;;;;;;;;;;;;;;;8.71;63.14;101706.00;4976283;28;19938;-61
2022/10/20 04:04:32;;;;;;;;;;;;;;;8.72;62.77;101718.22;4977326;28;19977;-62
2022/10/20 04:06:57;;;;;;;;;;;;;;;8.51;63.25;101708.47;4977821;28;19917;-62
2022/10/20 04:09:22;;;;;;;;;;;;;;;8.49;63.28;101704.94;4976174;28;19953;-62
2022/10/20 04:11:48;;;;;;;;;;;;;;;8.47;63.36;101701.44;4976713;28;19925;-63
2022/10/20 04:14:13;;;;;;;;;;;;;;;8.57;63.11;101712.88;4977453;28;19918;-62
2022/10/20 04:16:38;;;;;;;;;;;;;;;8.58;62.77;101704.16;4977711;28;20350;-62
2022/10/20 04:19:04;;;;;;;;;;;;;;;8.52;63.03;101704.97;4975071;28;19926;-61
2022/10/20 04:21:29;;;;;;;;;;;;;;;8.49;62.85;101704.94;4975143;28;19929;-61
2022/10/20 04:23:54;;;;;;;;;;;;;;;8.38;63.17;101707.50;4977334;28;20060;-62
2022/10/20 04:26:19;;;;;;;;;;;;;;;8.45;63.03;101707.53;4977354;28;19925;-62
2022/10/20 04:28:45;;;;;;;;;;;;;;;8.56;62.94;101711.13;4976399;28;19974;-62
2022/10/20 04:31:10;;;;;;;;;;;;;;;8.63;62.81;101713.78;4975933;28;20012;-62
2022/10/20 04:33:35;;;;;;;;;;;;;;;8.63;62.70;101708.56;4977051;28;20031;-62
2022/10/20 04:36:05;;;;;;;;;;;;;;;8.74;62.31;101705.16;4977319;28;20449;-63
2022/10/20 04:38:31;;;;;;;;;;;;;;;8.76;62.47;101704.28;4975481;28;20031;-63
2022/10/20 04:40:57;;;;;;;;;;;;;;;8.71;62.56;101706.00;4975053;28;20390;-63
2022/10/20 04:43:22;;;;;;;;;;;;;;;8.77;62.19;101699.91;4976904;28;19941;-62
2022/10/20 04:45:48;;;;;;;;;;;;;;;8.73;62.31;101704.25;4976119;28;20358;-62
2022/10/20 04:48:13;;;;;;;;;;;;;;;8.75;61.96;101697.28;4976385;28;20425;-62
2022/10/20 04:50:38;;;;;;;;;;;;;;;8.73;62.40;101698.13;4974890;28;19918;-62
2022/10/20 04:53:04;;;;;;;;;;;;;;;8.72;62.23;101699.88;4974683;28;19929;-62
2022/10/20 04:55:29;;;;;;;;;;;;;;;8.70;62.20;101698.09;4976060;28;19929;-62
2022/10/20 04:57:54;;;;;;;;;;;;;;;8.85;62.04;101690.34;4976290;28;20350;-63
2022/10/20 05:00:20;;;;;;;;;;;;;;;8.81;61.59;101706.91;4975688;28;20101;-63
2022/10/20 05:02:45;;;;;;;;;;;;;;;8.97;61.70;101702.66;4975143;28;20306;-63
2022/10/20 05:05:10;;;;;;;;;;;;;;;8.99;61.31;101701.81;4976196;28;19926;-63
2022/10/20 05:07:35;;;;;;;;;;;;;;;9.02;61.41;101691.34;4974191;28;19922;-63
2022/10/20 05:10:01;;;;;;;;;;;;;;;8.84;61.67;101693.84;4971074;28;20374;-64
2022/10/20 05:12:27;;;;;;;;;;;;;;;8.86;61.41;101697.38;4973771;28;21756;-63
2022/10/20 05:14:52;;;;;;;;;;;;;;;9.00;61.45;101692.19;4972785;28;20462;-64
2022/10/20 05:17:18;;;;;;;;;;;;;;;8.97;62.69;101698.28;4962461;28;19922;-63
2022/10/20 05:19:44;;;;;;;;;;;;;;;9.07;62.67;101692.25;4969615;28;20293;-63
2022/10/20 05:22:10;;;;;;;;;;;;;;;8.83;62.15;101700.84;4971922;28;19925;-62
2022/10/20 05:24:35;;;;;;;;;;;;;;;9.02;61.06;101696.59;4973150;28;19918;-63
2022/10/20 05:27:00;;;;;;;;;;;;;;;9.07;60.96;101689.63;4975509;28;19918;-62
2022/10/20 05:29:26;;;;;;;;;;;;;;;9.13;61.21;101694.88;4974709;28;20397;-62
2022/10/20 05:31:51;;;;;;;;;;;;;;;9.45;65.72;101702.00;4974922;28;20018;-62
2022/10/20 05:34:16;;;;;;;;;;;;;;;9.44;60.20;101705.50;4975051;28;19929;-62
2022/10/20 05:36:41;;;;;;;;;;;;;;;9.41;59.85;101700.25;4971506;28;20381;-61
2022/10/20 05:39:08;;;;;;;;;;;;;;;9.44;59.69;101700.28;4975199;28;19918;-61
2022/10/20 05:41:33;;;;;;;;;;;;;;;9.49;60.02;101709.03;4974958;28;20262;-62
2022/10/20 05:44:00;;;;;;;;;;;;;;;9.52;59.35;101709.03;4975351;28;19918;-61
2022/10/20 05:46:26;;;;;;;;;;;;;;;9.45;59.74;101712.50;4974448;28;20382;-62
2022/10/20 05:48:55;;;;;;;;;;;;;;;9.38;59.90;101706.38;4975700;28;19918;-62
2022/10/20 05:51:23;;;;;;;;;;;;;;;9.26;60.26;101710.69;4974922;28;20022;-61
2022/10/20 05:53:49;;;;;;;;;;;;;;;9.45;59.86;101711.63;4975871;28;19921;-61
2022/10/20 05:56:15;;;;;;;;;;;;;;;9.65;59.46;101712.59;4975787;28;20012;-62
2022/10/20 05:58:41;;;;;;;;;;;;;;;9.53;60.05;101716.03;4975593;28;20016;-63
2022/10/20 06:01:07;;;;;;;;;;;;;;;9.73;60.41;101710.00;4976204;28;19954;-63
2022/10/20 06:03:33;;;;;;;;;;;;;;;9.91;58.98;101717.06;4975577;28;20373;-61
2022/10/20 06:05:59;;;;;;;;;;;;;;;9.94;58.42;101717.94;4975752;28;19914;-62
2022/10/20 06:08:24;;;;;;;;;;;;;;;9.99;58.42;101710.94;4975463;28;19914;-63
2022/10/20 06:10:49;;;;;;;;;;;;;;;9.99;58.46;101720.56;4974094;28;20389;-63
2022/10/20 06:13:15;;;;;;;;;;;;;;;9.99;57.86;101721.44;4975345;28;20045;-63
2022/10/20 06:15:40;;;;;;;;;;;;;;;10.02;58.17;101713.56;4974120;28;19987;-62
2022/10/20 06:18:05;;;;;;;;;;;;;;;10.12;58.22;101720.56;4975400;28;19918;-63
2022/10/20 06:20:30;;;;;;;;;;;;;;;10.24;57.97;101724.97;4972647;28;19933;-63
2022/10/20 06:22:56;;;;;;;;;;;;;;;10.35;57.46;101717.16;4975132;28;20429;-63
2022/10/20 06:25:21;;;;;;;;;;;;;;;10.48;57.06;101720.66;4975402;28;19918;-63
2022/10/20 06:27:46;;;;;;;;;;;;;;;10.46;57.05;101718.03;4975570;28;19981;-62
2022/10/20 06:30:12;;;;;;;;;;;;;;;10.54;58.49;101733.81;4975121;28;19922;-63
2022/10/20 06:32:37;;;;;;;;;;;;;;;10.77;57.17;101726.78;4974619;28;19922;-62
2022/10/20 06:35:02;;;;;;;;;;;;;;;10.79;56.04;101732.03;4974987;28;19918;-62
2022/10/20 06:37:28;;;;;;;;;;;;;;;10.98;56.13;101733.75;4975298;28;19918;-63
2022/10/20 06:39:53;;;;;;;;;;;;;;;11.03;55.48;101737.25;4975396;28;19924;-62
2022/10/20 06:42:18;;;;;;;;;;;;;;;11.16;55.47;101731.94;4975137;28;19965;-63
2022/10/20 06:44:44;;;;;;;;;;;;;;;11.29;55.28;101744.19;4974832;28;19968;-63
2022/10/20 06:47:09;;;;;;;;;;;;;;;11.45;54.65;101740.66;4974952;28;20047;-62
2022/10/20 06:49:34;;;;;;;;;;;;;;;11.53;54.82;101744.13;4975282;28;19942;-63
2022/10/20 06:51:59;;;;;;;;;;;;;;;11.76;54.94;101744.00;4974569;28;19918;-63
2022/10/20 06:54:25;;;;;;;;;;;;;;;11.57;54.36;101745.88;4975421;28;19918;-63
2022/10/20 06:56:50;;;;;;;;;;;;;;;11.71;54.31;101747.56;4975037;28;20357;-63
2022/10/20 06:59:15;;;;;;;;;;;;;;;11.64;54.09;101746.69;4974913;28;19926;-63
2022/10/20 07:01:41;;;;;;;;;;;;;;;11.61;54.28;101752.00;4974824;28;20301;-62
2022/10/20 07:04:09;;;;;;;;;;;;;;;11.47;54.80;101744.13;4975135;28;19960;-63
2022/10/20 07:06:35;;;;;;;;;;;;;;;11.37;54.58;101742.44;4975444;28;19961;-62
2022/10/20 07:09:02;;;;;;;;;;;;;;;11.33;54.76;101752.09;4975160;28;19922;-62
2022/10/20 07:11:28;;;;;;;;;;;;;;;11.29;54.88;101762.59;4974556;28;19918;-62
2022/10/20 07:13:54;;;;;;;;;;;;;;;11.20;54.75;101758.25;4974410;28;20433;-62
2022/10/20 07:16:21;;;;;;;;;;;;;;;11.26;54.75;101754.75;4974738;28;19964;-62
2022/10/20 07:18:46;;;;;;;;;;;;;;;11.27;55.12;101753.84;4974722;28;19976;-63
2022/10/20 07:21:13;;;;;;;;;;;;;;;11.17;55.34;101758.28;4974357;28;20389;-63
2022/10/20 07:23:39;;;;;;;;;;;;;;;11.33;55.41;101752.09;4974633;28;19921;-62
2022/10/20 07:26:06;;;;;;;;;;;;;;;11.54;55.15;101761.66;4974471;28;19914;-61
2022/10/20 07:28:31;;;;;;;;;;;;;;;11.73;55.03;101754.56;4974480;28;19914;-63
2022/10/20 07:31:00;;;;;;;;;;;;;;;11.82;54.74;101758.91;4974819;28;20330;-63
2022/10/20 07:33:26;;;;;;;;;;;;;;;11.78;54.43;101759.81;4974542;28;19918;-63
2022/10/20 07:35:51;;;;;;;;;;;;;;;12.01;54.19;101757.09;4974784;28;20420;-63
2022/10/20 07:38:16;;;;;;;;;;;;;;;11.90;55.10;101761.53;4974597;28;19925;-63
2022/10/20 07:40:41;;;;;;;;;;;;;;;12.08;54.39;101764.06;4974304;28;19918;-62
2022/10/20 07:43:07;;;;;;;;;;;;;;;12.13;53.45;101767.56;4974538;28;19941;-63
2022/10/20 07:45:32;;;;;;;;;;;;;;;12.20;52.24;101757.84;4974468;28;20012;-62
2022/10/20 07:47:58;;;;;;;;;;;;;;;12.14;52.29;101771.06;4974384;28;19917;-64
2022/10/20 07:50:23;;;;;;;;;;;;;;;12.28;51.92;101766.56;4974447;28;19918;-63
2022/10/20 07:52:49;;;;;;;;;;;;;;;12.37;55.00;101765.63;4973207;28;19918;-63
2022/10/20 07:55:15;;;;;;;;;;;;;;;12.52;56.06;101768.16;4974492;28;20033;-63
2022/10/20 07:57:40;;;;;;;;;;;;;;;12.59;51.53;101761.94;4974544;28;20381;-63
2022/10/20 08:00:06;;;;;;;;;;;;;;;12.68;51.00;101753.09;4974272;28;19918;-63
2022/10/20 08:02:31;;;;;;;;;;;;;;;12.83;51.22;101764.38;4974133;28;20020;-64
2022/10/20 08:04:56;;;;;;;;;;;;;;;12.79;50.13;101757.38;4976827;28;20317;-63
2022/10/20 08:07:22;;;;;;;;;;;;;;;12.97;50.42;101756.34;4977636;28;19922;-64
2022/10/20 08:09:47;;;;;;;;;;;;;;;13.13;50.59;101758.84;4977922;28;20381;-63
2022/10/20 08:12:12;;;;;;;;;;;;;;;13.15;50.09;101759.69;4977816;28;20366;-63
2022/10/20 08:14:38;;;;;;;;;;;;;;;13.16;49.32;101754.38;4977749;28;19914;-64
2022/10/20 08:17:03;;;;;;;;;;;;;;;13.26;48.85;101755.22;4977669;28;19925;-64
2022/10/20 08:19:29;;;;;;;;;;;;;;;13.40;49.30;101757.69;4977395;28;20432;-64
2022/10/20 08:21:54;;;;;;;;;;;;;;;13.48;48.83;101755.81;4977187;28;19914;-64
2022/10/20 08:24:20;;;;;;;;;;;;;;;13.36;49.08;101755.97;4977362;28;19924;-64
2022/10/20 08:26:45;;;;;;;;;;;;;;;13.07;49.94;101760.63;4977047;28;19921;-63
2022/10/20 08:29:11;;;;;;;;;;;;;;;13.30;49.48;101762.19;4977472;28;19918;-63
2022/10/20 08:31:36;;;;;;;;;;;;;;;13.48;49.66;101759.31;4977506;28;19973;-63
2022/10/20 08:34:02;;;;;;;;;;;;;;;13.57;48.99;101760.16;4977315;28;19918;-63
2022/10/20 08:36:27;;;;;;;;;;;;;;;13.49;48.91;101757.59;4977403;28;19918;-63
2022/10/20 08:38:53;;;;;;;;;;;;;;;13.65;49.46;101758.28;4977165;28;20371;-63
2022/10/20 08:41:23;;;;;;;;;;;;;;;13.81;48.50;101759.84;4977162;28;19918;-63
2022/10/20 08:43:51;;;;;;;;;;;;;;;13.95;47.92;101747.28;4977244;28;20004;-63
2022/10/20 08:46:18;;;;;;;;;;;;;;;13.97;45.95;101758.72;4977134;28;19929;-64
2022/10/20 08:48:44;;;;;;;;;;;;;;;14.24;46.65;101751.28;4977027;28;19918;-62
2022/10/20 08:51:14;;;;;;;;;;;;;;;14.17;47.36;101752.28;4977249;28;20010;-63
2022/10/20 08:53:40;;;;;;;;;;;;;;;14.21;45.94;101754.00;4976997;28;19921;-63
2022/10/20 08:56:05;;;;;;;;;;;;;;;14.41;45.89;101751.91;4976931;28;19918;-64
2022/10/20 08:58:31;;;;;;;;;;;;;;;14.46;44.98;101750.06;4977352;28;20029;-64
2022/10/20 09:00:57;;;;;;;;;;;;;;;14.44;44.86;101748.31;4977063;28;19968;-64
2022/10/20 09:03:27;;;;;;;;;;;;;;;14.36;45.47;101740.50;4976748;28;20049;-64
2022/10/20 09:05:55;;;;;;;;;;;;;;;14.59;47.85;101747.25;4976856;28;20397;-64
2022/10/20 09:08:24;;;;;;;;;;;;;;;14.57;47.44;101742.00;4976686;28;19914;-63
2022/10/20 09:10:51;;;;;;;;;;;;;;;14.71;45.07;101745.25;4976897;28;19937;-63
2022/10/20 09:13:20;;;;;;;;;;;;;;;14.91;45.05;101742.25;4977089;28;19936;-63
2022/10/20 09:15:46;;;;;;;;;;;;;;;14.87;44.39;101745.88;4976382;28;19957;-63
2022/10/20 09:18:13;;;;;;;;;;;;;;;14.77;41.76;101745.16;4967886;28;20986;-63
2022/10/20 09:20:52;;;;;;;;;;;;;;;14.96;43.06;101740.44;4969204;28;19977;-62
2022/10/20 09:23:19;;;;;;;;;;;;;;;14.81;44.68;101737.19;4974154;28;19961;-63
2022/10/20 09:25:45;;;;;;;;;;;;;;;14.61;43.96;101743.69;4975872;28;20366;-63
2022/10/20 09:28:19;;;;;;;;;;;;;;;14.56;44.97;101744.63;4975774;28;19949;-64
2022/10/20 09:30:44;;;;;;;;;;;;;;;14.61;42.67;101740.16;4963446;28;19922;-63
2022/10/20 09:33:27;;;;;;;;;;;;;;;14.70;44.48;101734.72;4971389;28;19932;-61
2022/10/20 09:35:52;;;;;;;;;;;;;;;14.65;44.56;101728.63;4970563;28;19984;-64
2022/10/20 09:38:21;;;;;;;;;;;;;;;14.86;43.25;101732.66;4975102;28;20382;-65
2022/10/20 09:41:13;;;;;;;;;;;;;;;15.02;45.75;101724.41;4975446;28;20379;-64
2022/10/20 09:43:57;;;;;;;;;;;;;;;15.20;42.08;101730.25;4973954;28;19923;-64
2022/10/20 09:46:24;;;;;;;;;;;;;;;15.32;41.25;101731.78;4975605;28;19933;-63
2022/10/20 09:48:49;;;;;;;;;;;;;;;15.24;40.18;101722.25;4975132;28;19922;-64
2022/10/20 09:51:25;;;;;;;;;;;;;;;15.41;41.06;101721.91;4974974;28;19984;-64
2022/10/20 09:53:59;;;;;;;;;;;;;;;15.48;41.69;101723.53;4974002;28;19918;-64
2022/10/20 09:56:28;;;;;;;;;;;;;;;15.57;41.06;101725.09;4974567;28;19929;-64
2022/10/20 09:58:54;;;;;;;;;;;;;;;15.57;40.52;101725.09;4975491;28;19924;-64
2022/10/20 10:01:19;;;;;;;;;;;;;;;15.63;40.89;101719.66;4974901;28;20005;-64
2022/10/20 10:03:50;;;;;;;;;;;;;;;15.68;40.71;101720.50;4975014;28;20032;-64
2022/10/20 10:06:18;;;;;;;;;;;;;;;15.68;42.52;101715.19;4974838;28;20400;-64
2022/10/20 10:08:44;;;;;;;;;;;;;;;15.78;40.66;101710.53;4974959;28;19922;-64
2022/10/20 10:11:14;;;;;;;;;;;;;;;15.57;38.80;101711.00;4972641;28;19926;-64
2022/10/20 10:13:44;;;;;;;;;;;;;;;15.70;40.28;101709.84;4969237;28;20341;-64
2022/10/20 10:16:13;;;;;;;;;;;;;;;15.71;40.85;101704.50;4974765;28;19922;-64
2022/10/20 10:18:39;;;;;;;;;;;;;;;15.74;41.23;101699.13;4975329;28;19922;-64
2022/10/20 10:21:04;;;;;;;;;;;;;;;15.73;41.90;101705.34;4976876;28;19922;-63
2022/10/20 10:23:32;;;;;;;;;;;;;;;15.81;41.50;101702.53;4977332;28;19926;-64
2022/10/20 10:25:57;;;;;;;;;;;;;;;15.87;41.42;101702.38;4976588;28;19918;-63
2022/10/20 10:28:32;;;;;;;;;;;;;;;15.94;41.63;101695.19;4974178;28;19922;-64
2022/10/20 10:31:09;;;;;;;;;;;;;;;15.99;40.24;101699.44;4974168;28;19953;-64
2022/10/20 10:33:35;;;;;;;;;;;;;;;15.99;40.18;101699.44;4968881;28;19957;-63
2022/10/20 10:36:02;;;;;;;;;;;;;;;16.12;42.58;101693.88;4964854;28;20605;-63
2022/10/20 10:38:28;;;;;;;;;;;;;;;16.16;40.20;101687.59;4972826;28;19926;-65
2022/10/20 10:41:05;;;;;;;;;;;;;;;16.25;41.18;101690.03;4965263;28;19918;-64
2022/10/20 10:43:38;;;;;;;;;;;;;;;16.25;40.94;101685.59;4968886;28;19926;-64
2022/10/20 10:46:09;;;;;;;;;;;;;;;16.26;40.31;101675.84;4974486;28;19922;-63
2022/10/20 10:48:39;;;;;;;;;;;;;;;16.32;41.73;101678.34;4974133;28;19918;-64
2022/10/20 10:51:09;;;;;;;;;;;;;;;16.30;39.32;101688.13;4967102;28;20342;-64
2022/10/20 10:53:37;;;;;;;;;;;;;;;16.31;39.94;101676.59;4973169;28;19918;-63
2022/10/20 10:56:03;;;;;;;;;;;;;;;16.32;39.58;101672.16;4973964;28;19925;-63
2022/10/20 10:58:47;;;;;;;;;;;;;;;16.32;39.68;101673.06;4974372;28;19918;-64
2022/10/20 11:01:15;;;;;;;;;;;;;;;16.29;40.41;101673.13;4974056;28;19944;-64
2022/10/20 11:04:00;;;;;;;;;;;;;;;16.26;39.99;101667.88;4974175;28;20328;-64
2022/10/20 11:06:44;;;;;;;;;;;;;;;16.28;39.51;101671.38;4972684;28;19922;-65
2022/10/20 11:09:15;;;;;;;;;;;;;;;16.20;39.17;101665.41;4973700;28;20360;-64
2022/10/20 11:12:10;;;;;;;;;;;;;;;16.17;39.96;101654.88;4968690;28;19958;-64
2022/10/20 11:14:47;;;;;;;;;;;;;;;16.21;42.14;101662.72;4973569;28;19918;-65
2022/10/20 11:17:13;;;;;;;;;;;;;;;16.29;39.51;101651.91;4974636;28;20297;-64
2022/10/20 11:19:57;;;;;;;;;;;;;;;16.39;41.97;101652.53;4972516;28;19922;-64
2022/10/20 11:22:40;;;;;;;;;;;;;;;16.43;41.09;101647.09;4973695;28;19925;-65
2022/10/20 11:25:11;;;;;;;;;;;;;;;16.39;42.58;101645.44;4973861;28;19961;-64
2022/10/20 11:27:37;;;;;;;;;;;;;;;16.41;42.92;101648.94;4972814;28;19965;-64
2022/10/20 11:30:14;;;;;;;;;;;;;;;16.40;41.89;101649.88;4971605;28;20037;-63
2022/10/20 11:32:53;;;;;;;;;;;;;;;16.39;38.71;101645.44;4965904;28;19918;-63
2022/10/20 11:35:37;;;;;;;;;;;;;;;16.49;40.76;101638.13;4973204;28;20396;-64
2022/10/20 11:38:15;;;;;;;;;;;;;;;16.53;41.99;101636.28;4971709;28;20381;-64
2022/10/20 11:40:48;;;;;;;;;;;;;;;16.46;38.05;101630.25;4971374;28;19949;-66
2022/10/20 11:43:28;;;;;;;;;;;;;;;16.51;38.89;101631.00;4975878;28;19918;-65
2022/10/20 11:45:54;;;;;;;;;;;;;;;16.52;38.85;101624.78;4977459;28;19921;-64
2022/10/20 11:48:26;;;;;;;;;;;;;;;16.47;38.96;101627.53;4981952;28;19918;-64
2022/10/20 11:51:20;;;;;;;;;;;;;;;16.42;38.91;101613.53;4977339;28;20408;-64
2022/10/20 11:53:48;;;;;;;;;;;;;;;16.33;40.52;101613.78;4972544;28;19921;-65
2022/10/20 11:56:23;;;;;;;;;;;;;;;16.37;40.86;101604.84;4977178;28;20401;-64
2022/10/20 11:59:11;;;;;;;;;;;;;;;16.37;40.24;101603.97;4977776;28;19918;-65
2022/10/20 12:01:57;;;;;;;;;;;;;;;16.40;38.55;101594.16;4975915;28;20350;-65
2022/10/20 12:04:31;;;;;;;;;;;;;;;16.41;39.30;101601.19;4965507;28;20057;-64
2022/10/20 12:07:16;;;;;;;;;;;;;;;16.41;38.92;101595.88;4977701;28;19914;-65
2022/10/20 12:09:54;;;;;;;;;;;;;;;16.43;45.41;101594.06;4976906;28;19918;-65
2022/10/20 12:12:25;;;;;;;;;;;;;;;16.39;39.54;101592.38;4977106;28;19918;-66
2022/10/20 12:15:00;;;;;;;;;;;;;;;16.42;39.05;101588.81;4977125;28;19925;-64
2022/10/20 12:17:32;;;;;;;;;;;;;;;16.26;39.46;101590.97;4975611;28;20392;-64
2022/10/20 12:20:16;;;;;;;;;;;;;;;16.41;39.50;101587.06;4976933;28;20290;-64
2022/10/20 12:22:41;;;;;;;;;;;;;;;16.42;39.68;101580.84;4977114;28;19953;-64
2022/10/20 12:25:06;;;;;;;;;;;;;;;16.34;39.93;101588.13;4976835;28;19957;-65
2022/10/20 12:27:32;;;;;;;;;;;;;;;16.27;40.16;101582.09;4976759;28;19922;-66
2022/10/20 12:30:00;;;;;;;;;;;;;;;16.30;39.28;101575.88;4976606;28;20425;-65
2022/10/20 12:32:34;;;;;;;;;;;;;;;16.24;40.75;101576.91;4976393;28;19918;-64
2022/10/20 12:35:22;;;;;;;;;;;;;;;16.25;40.22;101563.59;4976826;28;20008;-64
2022/10/20 12:38:01;;;;;;;;;;;;;;;16.21;39.33;101563.72;4976626;28;19918;-65
2022/10/20 12:40:32;;;;;;;;;;;;;;;16.12;39.65;101564.84;4976191;28;19996;-64
2022/10/20 12:42:58;;;;;;;;;;;;;;;16.11;39.94;101563.06;4976125;28;19917;-64